Time;durP1;ratioP1;P1;durP2;ratioP2;P2;SDS_P1;SDS_P2;PMS_P1;PMS_P2;Temp;Humidity;BMP_temperature;BMP_pressure;BME280_temperature;BME280_humidity;BME280_pressure;Samples;Min_cycle;Max_cycle;Signal;HPM_P1;HPM_P2
2021/06/21 00:01:10;;;;;;;4.32;3.72;;;;;;;18.92;93.72;99015.38;5017001;28;20053;-76
2021/06/21 00:03:36;;;;;;;6.07;3.90;;;;;;;18.99;92.31;99029.88;5016204;28;20050;-76
2021/06/21 00:06:03;;;;;;;6.22;3.60;;;;;;;19.04;93.17;99032.06;5017083;28;20111;-76
2021/06/21 00:08:30;;;;;;;3.97;3.45;;;;;;;18.96;93.04;99031.06;5016847;28;20054;-76
2021/06/21 00:10:56;;;;;;;4.25;3.80;;;;;;;18.96;92.25;99024.84;5016885;28;20431;-76
2021/06/21 00:13:23;;;;;;;6.25;3.97;;;;;;;18.86;92.21;99015.06;5016982;28;20049;-76
2021/06/21 00:15:52;;;;;;;3.78;3.38;;;;;;;18.92;92.50;99018.94;5016755;28;20436;-76
2021/06/21 00:18:18;;;;;;;4.35;3.95;;;;;;;18.77;91.99;99004.47;5016797;28;20057;-77
2021/06/21 00:20:46;;;;;;;11.13;4.22;;;;;;;18.77;92.64;99002.63;5031785;28;20393;-77
2021/06/21 00:23:13;;;;;;;5.22;4.50;;;;;;;18.73;94.29;98993.16;5036503;28;20053;-77
2021/06/21 00:25:40;;;;;;;4.88;4.38;;;;;;;18.78;92.94;99001.59;5035089;28;20115;-77
2021/06/21 00:28:06;;;;;;;6.65;4.60;;;;;;;18.81;93.35;99001.25;5035229;28;20061;-76
2021/06/21 00:30:33;;;;;;;4.55;4.15;;;;;;;18.80;93.39;98991.44;5036343;28;20115;-76
2021/06/21 00:33:00;;;;;;;5.63;4.45;;;;;;;18.74;93.30;98986.72;5036467;28;20049;-76
2021/06/21 00:35:27;;;;;;;4.93;4.30;;;;;;;18.78;91.80;98996.19;5036427;28;20398;-76
2021/06/21 00:37:57;;;;;;;5.68;5.03;;;;;;;18.69;93.38;99000.78;5036343;28;20053;-77
2021/06/21 00:40:24;;;;;;;6.65;4.80;;;;;;;18.66;93.29;98997.59;5036356;28;20057;-77
2021/06/21 00:42:51;;;;;;;5.32;4.78;;;;;;;18.79;93.11;99008.69;5036327;28;20418;-77
2021/06/21 00:45:21;;;;;;;6.93;4.85;;;;;;;18.78;93.89;99001.59;5036143;28;20126;-76
2021/06/21 00:47:50;;;;;;;5.80;5.30;;;;;;;18.80;93.74;98999.53;5036298;28;20053;-76
2021/06/21 00:50:18;;;;;;;5.93;4.47;;;;;;;18.78;92.50;99011.56;5035891;28;20053;-77
2021/06/21 00:52:45;;;;;;;5.55;4.93;;;;;;;18.77;92.52;99009.88;5035854;28;20111;-76
2021/06/21 00:55:13;;;;;;;6.35;5.47;;;;;;;18.70;92.21;99021.38;5035993;28;20136;-76
2021/06/21 00:57:41;;;;;;;6.07;5.57;;;;;;;18.71;93.08;99027.63;5035806;28;20053;-76
2021/06/21 01:00:12;;;;;;;9.00;6.10;;;;;;;18.72;92.39;99030.16;5035683;28;20077;-76
2021/06/21 01:02:39;;;;;;;5.88;4.75;;;;;;;18.77;92.09;99034.19;5036045;28;20099;-76
2021/06/21 01:05:16;;;;;;;7.50;5.22;;;;;;;18.79;93.78;99041.09;5035844;28;20396;-76
2021/06/21 01:07:43;;;;;;;8.05;5.82;;;;;;;18.79;94.34;99038.41;5034709;28;20057;-76
2021/06/21 01:10:13;;;;;;;6.57;5.93;;;;;;;18.81;93.09;99039.09;5034395;28;20119;-76
2021/06/21 01:12:46;;;;;;;8.33;5.33;;;;;;;18.76;92.87;99040.63;5035625;28;20406;-76
2021/06/21 01:15:16;;;;;;;7.47;6.22;;;;;;;18.68;94.46;99028.00;5035532;28;20050;-76
2021/06/21 01:17:49;;;;;;;9.32;6.13;;;;;;;18.70;94.46;99031.34;5035447;28;20069;-76
2021/06/21 01:20:49;;;;;;;7.20;6.50;;;;;;;18.65;95.94;99021.06;5024359;28;20049;-76
2021/06/21 01:23:33;;;;;;;6.78;6.15;;;;;;;18.64;97.02;99024.81;5016116;28;20129;-76
2021/06/21 01:26:03;;;;;;;7.00;6.30;;;;;;;18.72;97.40;99022.06;5014854;28;20054;-76
2021/06/21 01:28:54;;;;;;;6.97;6.28;;;;;;;18.66;96.72;99017.34;5015788;28;20112;-76
2021/06/21 01:31:28;;;;;;;8.80;6.70;;;;;;;18.66;96.83;99020.06;5015646;28;20096;-76
2021/06/21 01:33:55;;;;;;;8.07;6.70;;;;;;;18.66;96.74;99008.38;5015454;28;20049;-76
2021/06/21 01:36:25;;;;;;;7.78;6.97;;;;;;;18.56;96.15;98995.94;5014411;28;20054;-76
2021/06/21 01:38:58;;;;;;;8.95;7.05;;;;;;;18.56;95.86;99005.88;5014817;28;20108;-76
2021/06/21 01:41:28;;;;;;;9.98;7.75;;;;;;;18.50;99.05;99004.75;5014682;28;20063;-76
2021/06/21 01:43:56;;;;;;;9.13;7.40;;;;;;;18.55;100.00;99004.22;5016077;28;20046;-74
2021/06/21 01:46:28;;;;;;;8.70;7.75;;;;;;;18.51;99.24;98998.31;5015398;28;20077;-75
2021/06/21 01:48:59;;;;;;;11.57;8.00;;;;;;;18.55;99.75;99002.38;5014318;28;20130;-76
2021/06/21 01:51:29;;;;;;;9.63;7.63;;;;;;;18.61;nan;99008.91;5015342;28;20095;-76
2021/06/21 01:53:59;;;;;;;9.68;7.82;;;;;;;18.53;99.10;99004.38;5014308;28;20057;-76
2021/06/21 01:56:37;;;;;;;9.40;7.90;;;;;;;18.50;99.26;99004.75;5015372;28;20046;-76
2021/06/21 01:59:06;;;;;;;9.50;8.60;;;;;;;18.41;98.98;99000.38;5014409;28;20135;-76
2021/06/21 02:01:34;;;;;;;13.68;12.32;;;;;;;18.47;98.39;99002.41;5015315;28;20065;-75
2021/06/21 02:04:04;;;;;;;13.13;11.75;;;;;;;18.32;99.43;98969.84;5015449;28;20046;-75
2021/06/21 02:06:33;;;;;;;12.55;11.35;;;;;;;18.43;99.50;98992.94;5015202;28;20090;-75
2021/06/21 02:09:02;;;;;;;13.35;11.38;;;;;;;18.45;100.00;98985.50;5014343;28;20054;-75
2021/06/21 02:11:29;;;;;;;18.25;15.55;;;;;;;18.51;100.00;98984.81;5015142;28;20053;-75
2021/06/21 02:13:56;;;;;;;16.77;15.07;;;;;;;18.53;100.00;98985.47;5013911;28;20083;-75
2021/06/21 02:16:25;;;;;;;18.35;16.55;;;;;;;18.45;100.00;98982.78;5015300;28;20058;-75
2021/06/21 02:18:53;;;;;;;20.48;18.00;;;;;;;18.45;100.00;98978.25;5015424;28;20056;-75
2021/06/21 02:21:21;;;;;;;24.25;17.90;;;;;;;18.52;100.00;98985.66;5015417;28;20049;-75
2021/06/21 02:23:50;;;;;;;18.35;16.45;;;;;;;18.49;100.00;98984.16;5018991;28;20112;-75
2021/06/21 02:26:22;;;;;;;18.10;16.30;;;;;;;18.42;100.00;98951.56;5019004;28;20096;-75
2021/06/21 02:28:53;;;;;;;15.02;13.43;;;;;;;18.56;100.00;98960.81;5019013;28;20054;-75
2021/06/21 02:31:20;;;;;;;;;;;;;;;18.54;100.00;98970.97;5019394;28;20056;-75
2021/06/21 02:33:46;;;;;;;16.13;11.30;;;;;;;18.48;100.00;98981.63;5017638;28;19936;-75
2021/06/21 02:36:14;;;;;;;13.35;11.95;;;;;;;18.39;100.00;98965.44;5018580;28;20084;-75
2021/06/21 02:38:40;;;;;;;11.65;10.45;;;;;;;18.43;100.00;98974.03;5018653;28;20049;-75
2021/06/21 02:41:07;;;;;;;11.77;10.20;;;;;;;18.48;100.00;98979.75;5018472;28;20050;-75
2021/06/21 02:43:34;;;;;;;11.35;10.25;;;;;;;18.43;100.00;98966.75;5018648;28;20325;-75
2021/06/21 02:46:01;;;;;;;13.95;10.55;;;;;;;18.44;100.00;98959.50;5018706;28;20057;-75
2021/06/21 02:48:28;;;;;;;11.82;10.20;;;;;;;18.44;100.00;98968.47;5018631;28;20049;-75
2021/06/21 02:50:55;;;;;;;11.30;10.23;;;;;;;18.40;100.00;98945.50;5018285;28;20411;-75
2021/06/21 02:53:45;;;;;;;11.60;10.18;;;;;;;18.52;100.00;98953.25;5018495;28;20050;-75
2021/06/21 02:57:09;;;;;;;11.50;10.38;;;;;;;18.47;100.00;98945.66;5017473;28;20050;-75
2021/06/21 02:59:39;;;;;;;12.10;9.95;;;;;;;18.47;100.00;98942.97;5015950;28;20093;-75
2021/06/21 03:02:09;;;;;;;10.30;9.02;;;;;;;18.43;100.00;98945.16;5016079;28;20084;-75
2021/06/21 03:04:38;;;;;;;12.20;9.73;;;;;;;18.40;100.00;98934.69;5017389;28;20329;-74
2021/06/21 03:07:09;;;;;;;11.55;10.00;;;;;;;18.49;100.00;98932.81;5018197;28;20391;-74
2021/06/21 03:09:39;;;;;;;9.40;8.50;;;;;;;18.52;100.00;98940.56;5017136;28;20100;-75
2021/06/21 03:12:07;;;;;;;10.00;9.10;;;;;;;18.59;100.00;98948.81;5033402;28;20407;-75
2021/06/21 03:14:34;;;;;;;7.45;6.75;;;;;;;18.49;100.00;98931.97;5017940;28;20346;-75
2021/06/21 03:17:06;;;;;;;9.90;7.35;;;;;;;18.44;100.00;98938.75;5017118;28;20058;-75
2021/06/21 03:19:33;;;;;;;8.68;7.82;;;;;;;18.44;100.00;98935.19;5018081;28;20077;-75
2021/06/21 03:22:00;;;;;;;8.70;7.65;;;;;;;18.41;100.00;98939.09;5017862;28;20050;-75
2021/06/21 03:24:27;;;;;;;8.80;7.80;;;;;;;18.44;100.00;98948.69;5018091;28;20108;-75
2021/06/21 03:26:54;;;;;;;8.10;7.30;;;;;;;18.35;100.00;98952.47;5017643;28;20054;-76
2021/06/21 03:29:21;;;;;;;8.98;7.65;;;;;;;18.25;100.00;98948.09;5017684;28;20104;-75
2021/06/21 03:31:52;;;;;;;8.25;7.20;;;;;;;18.39;100.00;98953.78;5017579;28;20128;-75
2021/06/21 03:34:20;;;;;;;;;;;;;;;18.34;100.00;98961.59;5016841;28;20192;-75
2021/06/21 03:36:47;;;;;;;6.85;6.25;;;;;;;18.31;100.00;98966.28;5033133;28;19921;-75
2021/06/21 03:39:14;;;;;;;7.47;6.78;;;;;;;18.34;100.00;98964.28;5017450;28;20057;-76
2021/06/21 03:41:41;;;;;;;6.78;6.18;;;;;;;18.31;100.00;98957.38;5017427;28;20053;-75
2021/06/21 03:44:08;;;;;;;6.82;6.22;;;;;;;18.33;100.00;98960.72;5016548;28;20104;-74
2021/06/21 03:46:35;;;;;;;11.68;6.60;;;;;;;18.30;100.00;98958.38;5000261;28;20438;-75
2021/06/21 03:49:01;;;;;;;8.25;6.95;;;;;;;18.34;100.00;98958.88;5016319;28;20391;-75
2021/06/21 03:51:28;;;;;;;6.28;5.68;;;;;;;18.39;100.00;98959.19;5017615;28;20455;-75
2021/06/21 03:53:55;;;;;;;6.38;5.78;;;;;;;18.30;100.00;98955.69;5017285;28;20097;-76
2021/06/21 03:56:21;;;;;;;6.40;5.80;;;;;;;18.18;100.00;98956.03;5017562;28;20333;-76
2021/06/21 03:58:50;;;;;;;6.03;5.43;;;;;;;18.10;100.00;98961.47;5017725;28;20054;-77
2021/06/21 04:01:17;;;;;;;7.13;5.95;;;;;;;18.04;100.00;98962.94;5017077;28;20061;-76
2021/06/21 04:03:44;;;;;;;5.95;5.45;;;;;;;18.03;100.00;98963.97;5017091;28;20058;-75
2021/06/21 04:06:10;;;;;;;8.65;7.63;;;;;;;17.96;100.00;98954.88;5017275;28;20435;-75
2021/06/21 04:08:38;;;;;;;6.93;6.43;;;;;;;17.82;100.00;98956.41;5017207;28;20058;-76
2021/06/21 04:11:04;;;;;;;5.72;5.22;;;;;;;17.76;100.00;98949.03;5017860;28;20103;-75
2021/06/21 04:13:33;;;;;;;5.18;4.70;;;;;;;17.65;100.00;98944.78;5016965;28;20108;-75
2021/06/21 04:16:00;;;;;;;7.20;5.32;;;;;;;17.41;100.00;98945.63;5015829;28;20049;-75
2021/06/21 04:18:27;;;;;;;5.20;4.70;;;;;;;17.44;100.00;98948.84;5016007;28;20184;-76
2021/06/21 04:20:54;;;;;;;4.47;4.07;;;;;;;17.38;100.00;98952.25;5015583;28;20081;-75
2021/06/21 04:23:21;;;;;;;5.28;4.22;;;;;;;17.41;100.00;98956.41;5016850;28;20049;-77
2021/06/21 04:25:47;;;;;;;4.60;4.20;;;;;;;17.44;100.00;98956.94;5016719;28;20085;-78
2021/06/21 04:28:14;;;;;;;3.97;3.67;;;;;;;17.46;100.00;98960.31;5016855;28;20108;-77
2021/06/21 04:30:41;;;;;;;4.22;3.90;;;;;;;17.41;100.00;98961.81;5016638;28;20053;-76
2021/06/21 04:33:07;;;;;;;4.55;4.13;;;;;;;17.43;100.00;98965.22;5016615;28;20050;-76
2021/06/21 04:35:35;;;;;;;3.95;3.55;;;;;;;17.43;100.00;98966.03;5016320;28;20111;-73
2021/06/21 04:38:02;;;;;;;4.05;3.65;;;;;;;17.36;100.00;98962.31;5015292;28;20510;-73
2021/06/21 04:40:32;;;;;;;4.43;4.00;;;;;;;17.18;100.00;98960.63;5016656;28;20054;-74
2021/06/21 04:43:00;;;;;;;3.70;3.40;;;;;;;17.23;100.00;98966.34;5015227;28;20436;-74
2021/06/21 04:45:26;;;;;;;3.22;3.00;;;;;;;17.19;100.00;98967.72;5014849;28;20050;-74
2021/06/21 04:47:56;;;;;;;3.78;3.05;;;;;;;17.27;100.00;98982.22;5015503;28;20077;-74
2021/06/21 04:50:22;;;;;;;3.75;3.45;;;;;;;17.31;100.00;98972.75;5016238;28;20395;-76
2021/06/21 04:52:50;;;;;;;4.25;3.55;;;;;;;17.12;100.00;98938.88;5015415;28;20050;-73
2021/06/21 04:55:19;;;;;;;4.20;3.80;;;;;;;17.39;100.00;98975.50;5016390;28;20049;-74
2021/06/21 04:57:47;;;;;;;4.72;2.97;;;;;;;17.37;100.00;98964.00;5020289;28;20042;-74
2021/06/21 05:00:18;;;;;;;5.03;3.10;;;;;;;17.38;100.00;98971.94;5023530;28;20107;-76
2021/06/21 05:02:47;;;;;;;4.10;2.58;;;;;;;17.40;100.00;98971.78;5024964;28;20049;-73
2021/06/21 05:05:15;;;;;;;2.75;2.55;;;;;;;17.34;100.00;98973.28;5022353;28;20089;-73
2021/06/21 05:07:46;;;;;;;3.33;3.03;;;;;;;17.25;100.00;98971.59;5022388;28;20037;-73
2021/06/21 05:10:14;;;;;;;4.05;2.63;;;;;;;17.14;100.00;98956.59;5022443;28;20046;-72
2021/06/21 05:12:43;;;;;;;2.13;1.85;;;;;;;17.14;100.00;98963.81;5022855;28;20099;-71
2021/06/21 05:15:10;;;;;;;1.85;1.75;;;;;;;17.09;100.00;98972.41;5024298;28;20096;-73
2021/06/21 05:17:38;;;;;;;2.75;2.55;;;;;;;17.02;100.00;98972.22;5024909;28;20122;-73
2021/06/21 05:20:07;;;;;;;2.60;2.40;;;;;;;17.03;100.00;98982.00;5024916;28;20431;-73
2021/06/21 05:22:34;;;;;;;3.42;2.22;;;;;;;16.92;100.00;98982.25;5040377;28;20175;-76
2021/06/21 05:25:03;;;;;;;3.40;2.45;;;;;;;16.89;100.00;98986.13;5026042;28;20099;-72
2021/06/21 05:27:30;;;;;;;4.43;2.65;;;;;;;16.84;100.00;98992.00;5024935;28;20061;-74
2021/06/21 05:29:58;;;;;;;2.83;2.63;;;;;;;16.81;100.00;98996.88;5024627;28;20365;-74
2021/06/21 05:32:25;;;;;;;2.90;2.65;;;;;;;16.92;100.00;99002.00;5026257;28;20056;-73
2021/06/21 05:34:53;;;;;;;2.72;2.28;;;;;;;16.79;100.00;98971.97;5023252;28;20419;-73
2021/06/21 05:37:19;;;;;;;3.42;2.80;;;;;;;16.88;100.00;99006.00;5023016;28;20424;-73
2021/06/21 05:39:46;;;;;;;2.47;2.30;;;;;;;16.81;100.00;99004.97;5016110;28;20414;-77
2021/06/21 05:42:14;;;;;;;4.63;2.70;;;;;;;16.70;100.00;98998.88;5025454;28;20049;-78
2021/06/21 05:44:42;;;;;;;2.72;2.53;;;;;;;16.61;100.00;99021.38;5025076;28;20100;-75
2021/06/21 05:47:08;;;;;;;3.45;2.10;;;;;;;16.45;100.00;99010.53;5024229;28;20351;-74
2021/06/21 05:49:35;;;;;;;2.55;2.05;;;;;;;16.29;100.00;98990.63;5024744;28;20107;-74
2021/06/21 05:52:02;;;;;;;2.40;2.20;;;;;;;16.42;100.00;99022.47;5025893;28;20045;-74
2021/06/21 05:54:29;;;;;;;2.65;2.00;;;;;;;16.46;100.00;99023.84;5024150;28;20049;-75
2021/06/21 05:56:56;;;;;;;2.75;1.85;;;;;;;16.37;100.00;99022.97;5024732;28;20100;-74
2021/06/21 05:59:22;;;;;;;1.80;1.70;;;;;;;16.32;100.00;99024.44;5027071;28;20191;-75
2021/06/21 06:01:49;;;;;;;4.10;1.80;;;;;;;16.27;100.00;99030.28;5029638;28;20095;-74
2021/06/21 06:04:16;;;;;;;2.00;1.80;;;;;;;16.30;100.00;99019.22;5027286;28;20049;-74
2021/06/21 06:06:43;;;;;;;1.90;1.40;;;;;;;16.28;100.00;99018.50;5029742;28;20049;-76
2021/06/21 06:09:10;;;;;;;3.70;1.80;;;;;;;16.29;100.00;99029.13;5028220;28;20053;-75
2021/06/21 06:11:37;;;;;;;1.30;1.20;;;;;;;16.17;100.00;99010.72;5025838;28;20096;-75
2021/06/21 06:14:03;;;;;;;1.60;1.40;;;;;;;16.17;100.00;99034.94;5019122;28;20104;-74
2021/06/21 06:16:30;;;;;;;2.80;1.48;;;;;;;16.08;100.00;99034.88;5019337;28;20104;-74
2021/06/21 06:18:57;;;;;;;3.10;1.42;;;;;;;16.11;100.00;99036.41;5018005;28;20120;-74
2021/06/21 06:21:29;;;;;;;3.33;1.63;;;;;;;16.09;100.00;99041.09;5037960;28;20424;-74
2021/06/21 06:23:59;;;;;;;1.52;1.40;;;;;;;16.14;100.00;99042.31;5037239;28;20057;-75
2021/06/21 06:26:26;;;;;;;2.50;1.80;;;;;;;15.97;100.00;99019.81;5038389;28;20072;-74
2021/06/21 06:28:54;;;;;;;4.85;1.77;;;;;;;16.03;100.00;99031.84;5038516;28;20099;-75
2021/06/21 06:31:21;;;;;;;1.73;1.63;;;;;;;16.06;100.00;99044.13;5037735;28;20045;-75
2021/06/21 06:33:48;;;;;;;2.50;1.52;;;;;;;16.06;100.00;99044.97;5037695;28;20057;-75
2021/06/21 06:36:15;;;;;;;3.97;1.73;;;;;;;16.09;100.00;99043.81;5038602;28;20112;-74
2021/06/21 06:38:42;;;;;;;1.70;1.25;;;;;;;16.05;100.00;99047.81;5037697;28;20107;-74
2021/06/21 06:41:08;;;;;;;1.48;1.35;;;;;;;16.02;100.00;99057.06;5038375;28;20057;-76
2021/06/21 06:43:35;;;;;;;2.33;1.52;;;;;;;16.00;100.00;99050.97;5038666;28;20427;-75
2021/06/21 06:46:01;;;;;;;3.45;1.20;;;;;;;15.93;100.00;99053.44;5038300;28;20054;-76
2021/06/21 06:48:29;;;;;;;2.33;0.95;;;;;;;15.84;100.00;99060.56;5038450;28;20053;-75
2021/06/21 06:50:55;;;;;;;1.83;1.02;;;;;;;15.80;100.00;99061.88;5038131;28;20336;-75
2021/06/21 06:53:28;;;;;;;1.35;0.80;;;;;;;15.71;100.00;99054.75;5037507;28;20100;-75
2021/06/21 06:58:39;;;;;;;1.63;0.70;;;;;;;15.73;100.00;99077.78;5038131;28;20100;-75
2021/06/21 07:01:07;;;;;;;0.80;0.68;;;;;;;15.71;100.00;99087.88;5004353;28;20053;-72
2021/06/21 07:03:33;;;;;;;1.95;0.60;;;;;;;15.79;100.00;99088.94;5036952;28;20470;-78
2021/06/21 07:06:00;;;;;;;0.75;0.40;;;;;;;15.79;100.00;99089.78;5037202;28;20049;-75
2021/06/21 07:08:27;;;;;;;0.40;0.40;;;;;;;15.84;100.00;99098.25;5037930;28;20089;-74
2021/06/21 07:10:54;;;;;;;3.30;0.43;;;;;;;15.85;100.00;99108.00;5038254;28;20127;-75
2021/06/21 07:13:20;;;;;;;0.52;0.45;;;;;;;15.74;100.00;99108.22;5037872;28;20053;-73
2021/06/21 07:15:48;;;;;;;0.63;0.40;;;;;;;15.67;100.00;99107.13;5037724;28;20114;-73
2021/06/21 07:18:15;;;;;;;1.20;0.40;;;;;;;15.65;100.00;99107.31;5053047;28;20435;-77
2021/06/21 07:20:42;;;;;;;1.23;0.75;;;;;;;15.53;100.00;99103.16;5023113;28;20050;-75
2021/06/21 07:23:09;;;;;;;0.50;0.50;;;;;;;15.62;100.00;99115.66;5017876;28;20339;-76
2021/06/21 07:25:36;;;;;;;2.28;0.60;;;;;;;15.66;100.00;99118.91;5017054;28;20050;-75
2021/06/21 07:28:03;;;;;;;1.25;0.70;;;;;;;15.72;100.00;99129.06;5017727;28;20050;-75
2021/06/21 07:30:29;;;;;;;1.17;0.80;;;;;;;15.74;100.00;99117.16;5017688;28;20114;-76
2021/06/21 07:32:56;;;;;;;1.20;0.93;;;;;;;15.82;100.00;99126.28;5017995;28;20104;-77
2021/06/21 07:35:24;;;;;;;1.88;0.70;;;;;;;15.94;100.00;99133.16;5016432;28;20137;-75
2021/06/21 07:37:51;;;;;;;1.05;0.88;;;;;;;15.90;100.00;99134.44;5017936;28;20057;-76
2021/06/21 07:40:17;;;;;;;3.15;0.70;;;;;;;15.77;100.00;99137.53;5017831;28;20046;-75
2021/06/21 07:42:44;;;;;;;0.57;0.50;;;;;;;15.54;100.00;99135.28;5017515;28;20120;-73
2021/06/21 07:45:11;;;;;;;1.58;0.80;;;;;;;15.39;100.00;99140.31;5017384;28;20119;-75
2021/06/21 07:47:41;;;;;;;1.75;0.80;;;;;;;15.40;100.00;99141.13;5017541;28;20080;-77
2021/06/21 07:50:08;;;;;;;3.30;0.90;;;;;;;15.42;100.00;99140.00;5017483;28;20054;-77
2021/06/21 07:52:34;;;;;;;1.65;0.90;;;;;;;15.46;100.00;99151.28;5000191;28;20045;-70
2021/06/21 07:55:01;;;;;;;1.17;1.08;;;;;;;15.57;100.00;99155.63;5017352;28;20046;-70
2021/06/21 07:57:28;;;;;;;2.05;0.98;;;;;;;15.63;100.00;99162.25;5017121;28;20050;-71
2021/06/21 07:59:55;;;;;;;1.20;0.93;;;;;;;15.70;100.00;99171.41;5017183;28;20062;-71
2021/06/21 08:02:22;;;;;;;1.17;1.00;;;;;;;15.57;100.00;99167.22;5016235;28;20057;-69
2021/06/21 08:04:50;;;;;;;1.38;1.27;;;;;;;15.62;100.00;99177.53;5032749;28;20104;-70
2021/06/21 08:07:17;;;;;;;2.75;1.23;;;;;;;15.63;100.00;99178.38;5018154;28;20084;-71
2021/06/21 08:09:44;;;;;;;3.28;2.05;;;;;;;15.46;100.00;99179.03;5016994;28;20448;-71
2021/06/21 08:12:11;;;;;;;1.98;1.10;;;;;;;15.60;100.00;99201.06;5016745;28;20054;-71
2021/06/21 08:14:41;;;;;;;1.20;1.10;;;;;;;15.64;100.00;99206.97;5018652;28;20056;-71
2021/06/21 08:17:09;;;;;;;1.20;1.10;;;;;;;15.73;100.00;99201.53;5020646;28;20042;-71
2021/06/21 08:19:36;;;;;;;1.77;1.20;;;;;;;15.66;100.00;99192.38;5021846;28;20095;-72
2021/06/21 08:22:03;;;;;;;1.20;1.00;;;;;;;15.79;100.00;99210.00;5036572;28;20111;-71
2021/06/21 08:24:30;;;;;;;1.20;1.10;;;;;;;15.76;100.00;99213.84;5036380;28;20080;-72
2021/06/21 08:27:00;;;;;;;4.63;1.50;;;;;;;15.72;100.00;99194.47;5036666;28;20401;-73
2021/06/21 08:29:27;;;;;;;2.67;1.10;;;;;;;15.96;100.00;99211.06;5035578;28;20057;-70
2021/06/21 08:31:53;;;;;;;1.60;1.40;;;;;;;15.98;100.00;99218.00;5036469;28;20060;-69
2021/06/21 08:34:20;;;;;;;1.65;1.45;;;;;;;16.04;100.00;99219.22;5036271;28;20050;-72
2021/06/21 08:36:47;;;;;;;1.52;1.30;;;;;;;15.93;100.00;99220.28;5035095;28;20076;-72
2021/06/21 08:39:13;;;;;;;0.93;0.93;;;;;;;15.75;98.25;99209.47;5035138;28;20103;-70
2021/06/21 08:41:40;;;;;;;1.85;0.90;;;;;;;15.74;99.38;99223.88;5036416;28;20054;-70
2021/06/21 08:44:07;;;;;;;2.28;1.60;;;;;;;15.73;100.00;99212.31;5035046;28;20053;-70
2021/06/21 08:46:34;;;;;;;1.30;1.20;;;;;;;15.85;100.00;99198.66;5035931;28;20049;-70
2021/06/21 08:49:03;;;;;;;3.50;1.33;;;;;;;15.86;100.00;99185.03;5036388;28;20115;-74
2021/06/21 08:51:32;;;;;;;1.42;1.33;;;;;;;16.06;100.00;99179.53;5035181;28;20111;-72
2021/06/21 08:53:58;;;;;;;1.58;1.48;;;;;;;16.17;99.88;99167.69;5035851;28;20053;-72
2021/06/21 08:56:25;;;;;;;1.83;1.73;;;;;;;16.19;100.00;99164.84;5034787;28;20553;-70
2021/06/21 08:58:52;;;;;;;1.70;1.60;;;;;;;16.25;97.93;99177.69;5036127;28;20049;-72
2021/06/21 09:01:18;;;;;;;1.88;1.77;;;;;;;16.45;nan;99183.72;5034679;28;20107;-73
2021/06/21 09:03:47;;;;;;;2.45;2.25;;;;;;;16.57;97.86;99195.13;5034764;28;20060;-69
2021/06/21 09:06:23;;;;;;;1.98;1.88;;;;;;;16.75;99.04;99188.84;5035976;28;20071;-74
2021/06/21 09:08:58;;;;;;;2.10;2.00;;;;;;;16.84;95.29;99199.50;5034646;28;20053;-70
2021/06/21 09:11:50;;;;;;;1.75;1.65;;;;;;;16.78;97.28;99212.78;5035856;28;20049;-72
2021/06/21 09:14:26;;;;;;;2.72;1.65;;;;;;;16.55;96.65;99224.03;5035722;28;20057;-70
2021/06/21 09:16:55;;;;;;;1.83;1.50;;;;;;;16.49;96.37;99230.06;5035638;28;20075;-68
2021/06/21 09:19:22;;;;;;;2.10;1.30;;;;;;;16.52;95.99;99244.06;5031392;28;20042;-70
2021/06/21 09:21:49;;;;;;;1.50;1.40;;;;;;;16.35;95.65;99237.69;5016175;28;20382;-71
2021/06/21 09:24:28;;;;;;;1.92;1.40;;;;;;;16.40;95.98;99251.53;5015971;28;20054;-70
2021/06/21 09:27:00;;;;;;;0.95;0.95;;;;;;;16.43;95.80;99256.63;5016003;28;20045;-70
2021/06/21 09:29:35;;;;;;;1.40;1.30;;;;;;;16.50;96.29;99266.78;5015514;28;20053;-70
2021/06/21 09:32:55;;;;;;;4.63;1.35;;;;;;;16.43;95.95;99274.63;5015528;28;20505;-71
2021/06/21 09:35:31;;;;;;;2.97;1.60;;;;;;;16.41;96.79;99279.31;5015566;28;20054;-71
2021/06/21 09:38:12;;;;;;;2.45;1.30;;;;;;;16.39;95.20;99282.16;5015689;28;20120;-73
2021/06/21 09:40:45;;;;;;;2.20;1.70;;;;;;;16.32;95.27;99286.47;5015904;28;20050;-73
2021/06/21 09:43:20;;;;;;;1.70;1.60;;;;;;;16.30;97.10;99293.84;5014951;28;20332;-73
2021/06/21 09:46:07;;;;;;;1.83;1.73;;;;;;;16.29;97.01;99297.56;5015079;28;20068;-73
2021/06/21 09:48:49;;;;;;;1.67;1.58;;;;;;;16.32;95.77;99296.38;5014023;28;20054;-74
2021/06/21 09:51:22;;;;;;;1.95;1.85;;;;;;;16.22;95.43;99305.38;5015411;28;20049;-73
2021/06/21 09:54:12;;;;;;;1.88;1.77;;;;;;;16.28;96.22;99312.00;5014035;28;20336;-73
2021/06/21 09:56:45;;;;;;;2.20;2.00;;;;;;;16.30;95.17;99301.94;5014490;28;20057;-73
2021/06/21 09:59:33;;;;;;;1.65;1.52;;;;;;;16.22;94.31;99318.84;5014657;28;20107;-72
2021/06/21 10:02:12;;;;;;;2.50;2.30;;;;;;;16.36;96.64;99324.69;5014278;28;20145;-74
2021/06/21 10:04:42;;;;;;;2.00;1.90;;;;;;;16.55;97.28;99323.72;5014872;28;20076;-74
2021/06/21 10:07:30;;;;;;;2.10;2.00;;;;;;;16.60;95.51;99331.34;5015177;28;20419;-72
2021/06/21 10:10:01;;;;;;;2.80;2.10;;;;;;;16.49;93.24;99337.78;5015727;28;20463;-73
2021/06/21 10:12:28;;;;;;;2.10;2.00;;;;;;;16.47;93.57;99345.19;5016185;28;20060;-72
2021/06/21 10:14:56;;;;;;;2.08;1.98;;;;;;;16.43;92.76;99342.81;5015581;28;20072;-73
2021/06/21 10:17:23;;;;;;;2.38;2.17;;;;;;;16.63;95.21;99353.44;5015488;28;20380;-73
2021/06/21 10:19:50;;;;;;;2.28;2.13;;;;;;;16.51;92.27;99357.34;5030504;28;20124;-73
2021/06/21 10:22:20;;;;;;;2.65;2.45;;;;;;;16.65;94.25;99351.44;5014179;28;20081;-73
2021/06/21 10:24:51;;;;;;;2.58;2.38;;;;;;;16.62;91.58;99357.13;5015936;28;20129;-74
2021/06/21 10:27:22;;;;;;;2.35;2.20;;;;;;;16.64;91.88;99375.81;5015818;28;20351;-73
2021/06/21 10:29:49;;;;;;;2.10;2.00;;;;;;;16.53;92.89;99377.75;5015242;28;20062;-73
2021/06/21 10:32:17;;;;;;;2.50;2.30;;;;;;;16.49;93.92;99373.66;5015082;28;20050;-73
2021/06/21 10:34:48;;;;;;;2.60;2.40;;;;;;;16.50;94.74;99380.75;5014970;28;20053;-73
2021/06/21 10:37:17;;;;;;;;;;;;;;;16.49;92.46;99384.44;5015620;28;20054;-73
2021/06/21 10:39:47;;;;;;;2.63;2.42;;;;;;;16.43;93.41;99379.66;5014869;28;20358;-73
2021/06/21 10:42:18;;;;;;;2.22;2.10;;;;;;;16.52;95.19;99389.50;5015014;28;20053;-75
2021/06/21 10:44:49;;;;;;;1.95;1.85;;;;;;;16.56;94.04;99399.00;5018798;28;20069;-75
2021/06/21 10:47:36;;;;;;;3.42;2.03;;;;;;;16.52;95.05;99392.19;5018893;28;20406;-75
2021/06/21 10:50:07;;;;;;;1.70;1.60;;;;;;;16.54;94.46;99413.59;5017430;28;20351;-75
2021/06/21 10:52:35;;;;;;;;;;;;;;;16.51;94.95;99425.53;5019079;28;20107;-75
2021/06/21 10:55:21;;;;;;;1.80;1.70;;;;;;;16.47;92.76;99423.28;5018391;28;20279;-75
2021/06/21 10:58:03;;;;;;;3.25;1.80;;;;;;;16.45;94.21;99441.44;5018535;28;20115;-74
2021/06/21 11:00:34;;;;;;;2.38;2.10;;;;;;;16.46;94.14;99438.63;5018050;28;20328;-74
2021/06/21 11:03:03;;;;;;;4.07;1.90;;;;;;;16.72;91.41;99442.44;5017533;28;20058;-75
2021/06/21 11:05:41;;;;;;;1.95;1.83;;;;;;;16.85;91.92;99445.63;5018482;28;20058;-74
2021/06/21 11:08:12;;;;;;;2.40;1.73;;;;;;;17.07;90.87;99448.88;5017287;28;20057;-75
2021/06/21 11:10:39;;;;;;;1.67;1.58;;;;;;;17.18;90.15;99445.97;5015343;28;20137;-75
2021/06/21 11:16:15;;;;;;;1.60;1.50;;;;;;;17.16;90.28;99461.44;5017737;28;20065;-75
2021/06/21 11:18:43;;;;;;;1.67;1.58;;;;;;;16.94;90.33;99452.78;5017516;28;20073;-75
2021/06/21 11:21:19;;;;;;;1.83;1.73;;;;;;;16.97;91.16;99460.56;5017578;28;20053;-75
2021/06/21 11:23:48;;;;;;;1.88;1.70;;;;;;;17.03;91.48;99472.59;5018052;28;20115;-75
2021/06/21 11:26:15;;;;;;;1.65;1.55;;;;;;;17.15;91.70;99475.09;5018128;28;20048;-75
2021/06/21 11:28:45;;;;;;;2.00;1.83;;;;;;;17.31;90.13;99480.63;5017911;28;20100;-75
2021/06/21 11:31:17;;;;;;;2.70;2.50;;;;;;;17.54;87.81;99474.75;5017860;28;20058;-75
2021/06/21 11:34:04;;;;;;;2.70;2.50;;;;;;;17.96;89.22;99473.19;5017630;28;20133;-75
2021/06/21 11:36:48;;;;;;;3.85;2.80;;;;;;;18.25;85.30;99466.66;5017522;28;20042;-74
2021/06/21 11:39:28;;;;;;;3.90;3.60;;;;;;;18.01;86.35;99468.19;5017779;28;20111;-75
2021/06/21 11:41:58;;;;;;;3.95;3.63;;;;;;;18.01;86.32;99468.19;5017635;28;20053;-73
2021/06/21 11:44:39;;;;;;;4.18;3.88;;;;;;;18.02;86.31;99474.41;5017378;28;20058;-73
2021/06/21 11:47:18;;;;;;;4.90;4.50;;;;;;;17.83;85.69;99479.03;5017401;28;20329;-73